LTCF Airport Information

Runway Information
Runway 06 Length 11483 ft width 148 ft
Elevation 5873 ft Threshold 0 ft Heading 64
Runway 24 Length 11483 ft Width 148 ft
Elevation 5869 ft Threshold 0 ft Heading 244
Airport Frequencies
Type TWR Name TWR Frequency 122.4 MHZ
Airport Navaids
Type VOR-DME Name Kars Frequency 113800 KHZ
Type NDB Name Kars Frequency 431 KHZ
Airport Weather Information & NOTAM
ADDS - METARS form results

(2128 UTC 23 October 2018)
Data provider http://aviationweather.gov/metar/data/
 
METAR text: LTCF 232050Z 30007KT 9999 SCT035 05/03 Q1020
Conditions at: LTCF (KARS , TR) observed 2050 UTC 23 October 2018
Temperature: 5.0°C (41°F)
Dewpoint: 3.0°C (37°F) [RH = 87%]
Pressure (altimeter): 30.12 inches Hg (1020.0 mb)
Winds: from the WNW (300 degrees) at 8 MPH (7 knots; 3.6 m/s)
Visibility: 6 or more miles (10+ km)
Ceiling: at least 12,000 feet AGL
Clouds: scattered clouds at 3500 feet AGL
Weather: no significant weather observed at this time

Forecast for: LTCF (KARS , TR)
Text: TAF LTCF 231940Z 2321/2406 24009KT 9999 SCT035
Forecast period: 2100 UTC 23 October 2018 to 0600 UTC 24 October 2018
Forecast type: FROM: standard forecast or significant change
Winds: from the WSW (240 degrees) at 10 MPH (9 knots; 4.6 m/s)
Visibility: 6 or more miles 10+ km)
Ceiling: at least 12,000 feet AGL
Clouds: scattered clouds at 3500 feet AGL
Weather: no significant weather forecast for this period